Terminal Aerodrome Forecast
Issued by NWS Jackson, MS

Home | Current Version | Previous Version | Text Only | Print | Product List | Glossary On
Versions: 1 2 3 4 5 6 7 8 9 10 11 12 13
686
FTUS44 KMEG 130658 AAA
TAFTUP
TAF AMD
KTUP 130658Z 1307/1406 36012KT P6SM SKC
     FM131500 04011KT P6SM SKC
     FM140000 05004KT P6SM SCT100=

USA.gov is the U.S. government's official web portal to all federal, state and local government web resources and services.